sensor_id;sensor_type;location;lat;lon;timestamp;P1;durP1;ratioP1;P2;durP2;ratioP2
2320;SDS011;15376;48.540;9.268;2024-02-16T00:00:57;8.40;;;7.23;;
2320;SDS011;15376;48.540;9.268;2024-02-16T00:03:22;9.70;;;6.80;;
2320;SDS011;15376;48.540;9.268;2024-02-16T00:05:48;7.37;;;6.00;;
2320;SDS011;15376;48.540;9.268;2024-02-16T00:08:16;6.33;;;5.47;;
2320;SDS011;15376;48.540;9.268;2024-02-16T00:10:42;5.97;;;5.50;;
2320;SDS011;15376;48.540;9.268;2024-02-16T00:13:08;6.40;;;5.83;;
2320;SDS011;15376;48.540;9.268;2024-02-16T00:15:33;6.13;;;5.53;;
2320;SDS011;15376;48.540;9.268;2024-02-16T00:17:58;5.93;;;5.33;;
2320;SDS011;15376;48.540;9.268;2024-02-16T00:20:24;10.10;;;6.17;;
2320;SDS011;15376;48.540;9.268;2024-02-16T00:22:49;6.73;;;5.60;;
2320;SDS011;15376;48.540;9.268;2024-02-16T00:25:14;9.23;;;6.80;;
2320;SDS011;15376;48.540;9.268;2024-02-16T00:27:40;6.00;;;4.73;;
2320;SDS011;15376;48.540;9.268;2024-02-16T00:30:06;7.50;;;5.70;;
2320;SDS011;15376;48.540;9.268;2024-02-16T00:32:32;9.73;;;6.37;;
2320;SDS011;15376;48.540;9.268;2024-02-16T00:34:57;9.80;;;6.67;;
2320;SDS011;15376;48.540;9.268;2024-02-16T00:37:23;6.00;;;5.40;;
2320;SDS011;15376;48.540;9.268;2024-02-16T00:39:49;7.17;;;6.50;;
2320;SDS011;15376;48.540;9.268;2024-02-16T00:42:15;7.03;;;6.33;;
2320;SDS011;15376;48.540;9.268;2024-02-16T00:44:40;7.07;;;6.27;;
2320;SDS011;15376;48.540;9.268;2024-02-16T00:47:05;6.97;;;6.27;;
2320;SDS011;15376;48.540;9.268;2024-02-16T00:49:31;9.53;;;5.57;;
2320;SDS011;15376;48.540;9.268;2024-02-16T00:51:57;7.20;;;5.73;;
2320;SDS011;15376;48.540;9.268;2024-02-16T00:54:22;6.80;;;6.10;;
2320;SDS011;15376;48.540;9.268;2024-02-16T00:56:48;6.30;;;5.70;;
2320;SDS011;15376;48.540;9.268;2024-02-16T00:59:13;6.63;;;5.67;;
2320;SDS011;15376;48.540;9.268;2024-02-16T01:01:39;5.80;;;5.30;;
2320;SDS011;15376;48.540;9.268;2024-02-16T01:04:04;5.97;;;5.20;;
2320;SDS011;15376;48.540;9.268;2024-02-16T01:06:31;5.50;;;5.00;;
2320;SDS011;15376;48.540;9.268;2024-02-16T01:08:57;6.00;;;5.23;;
2320;SDS011;15376;48.540;9.268;2024-02-16T01:11:22;6.27;;;4.97;;
2320;SDS011;15376;48.540;9.268;2024-02-16T01:13:48;5.23;;;4.73;;
2320;SDS011;15376;48.540;9.268;2024-02-16T01:16:13;5.20;;;4.13;;
2320;SDS011;15376;48.540;9.268;2024-02-16T01:18:39;9.20;;;4.90;;
2320;SDS011;15376;48.540;9.268;2024-02-16T01:21:05;7.20;;;5.67;;
2320;SDS011;15376;48.540;9.268;2024-02-16T01:23:30;6.67;;;6.07;;
2320;SDS011;15376;48.540;9.268;2024-02-16T01:25:55;8.03;;;5.50;;
2320;SDS011;15376;48.540;9.268;2024-02-16T01:28:21;6.50;;;5.90;;
2320;SDS011;15376;48.540;9.268;2024-02-16T01:30:48;7.80;;;6.20;;
2320;SDS011;15376;48.540;9.268;2024-02-16T01:33:13;6.93;;;6.10;;
2320;SDS011;15376;48.540;9.268;2024-02-16T01:35:39;7.10;;;6.40;;
2320;SDS011;15376;48.540;9.268;2024-02-16T01:38:05;9.57;;;6.50;;
2320;SDS011;15376;48.540;9.268;2024-02-16T01:40:30;7.03;;;6.33;;
2320;SDS011;15376;48.540;9.268;2024-02-16T01:42:56;7.13;;;6.40;;
2320;SDS011;15376;48.540;9.268;2024-02-16T01:45:22;7.03;;;6.40;;
2320;SDS011;15376;48.540;9.268;2024-02-16T01:47:47;5.07;;;4.63;;
2320;SDS011;15376;48.540;9.268;2024-02-16T01:50:18;10.33;;;5.10;;
2320;SDS011;15376;48.540;9.268;2024-02-16T01:52:45;7.17;;;6.13;;
2320;SDS011;15376;48.540;9.268;2024-02-16T01:55:12;7.10;;;6.40;;
2320;SDS011;15376;48.540;9.268;2024-02-16T01:57:45;8.53;;;7.07;;
2320;SDS011;15376;48.540;9.268;2024-02-16T02:00:11;8.03;;;6.50;;
2320;SDS011;15376;48.540;9.268;2024-02-16T02:02:39;7.20;;;6.60;;
2320;SDS011;15376;48.540;9.268;2024-02-16T02:05:06;9.03;;;6.40;;
2320;SDS011;15376;48.540;9.268;2024-02-16T02:07:31;6.60;;;5.63;;
2320;SDS011;15376;48.540;9.268;2024-02-16T02:09:57;8.63;;;5.83;;
2320;SDS011;15376;48.540;9.268;2024-02-16T02:12:22;6.63;;;6.03;;
2320;SDS011;15376;48.540;9.268;2024-02-16T02:14:48;6.87;;;6.30;;
2320;SDS011;15376;48.540;9.268;2024-02-16T02:17:15;6.97;;;6.37;;
2320;SDS011;15376;48.540;9.268;2024-02-16T02:19:40;7.70;;;6.67;;
2320;SDS011;15376;48.540;9.268;2024-02-16T02:22:24;6.30;;;5.70;;
2320;SDS011;15376;48.540;9.268;2024-02-16T02:24:52;7.03;;;6.33;;
2320;SDS011;15376;48.540;9.268;2024-02-16T02:27:19;9.03;;;6.17;;
2320;SDS011;15376;48.540;9.268;2024-02-16T02:29:44;6.33;;;5.70;;
2320;SDS011;15376;48.540;9.268;2024-02-16T02:32:09;6.83;;;6.13;;
2320;SDS011;15376;48.540;9.268;2024-02-16T02:34:35;11.73;;;6.30;;
2320;SDS011;15376;48.540;9.268;2024-02-16T02:37:03;6.40;;;5.80;;
2320;SDS011;15376;48.540;9.268;2024-02-16T02:39:32;6.27;;;5.43;;
2320;SDS011;15376;48.540;9.268;2024-02-16T02:41:57;7.77;;;5.10;;
2320;SDS011;15376;48.540;9.268;2024-02-16T02:44:23;6.03;;;5.53;;
2320;SDS011;15376;48.540;9.268;2024-02-16T02:46:49;6.00;;;4.57;;
2320;SDS011;15376;48.540;9.268;2024-02-16T02:49:15;7.27;;;5.47;;
2320;SDS011;15376;48.540;9.268;2024-02-16T02:51:40;4.90;;;4.40;;
2320;SDS011;15376;48.540;9.268;2024-02-16T02:54:05;5.07;;;4.57;;
2320;SDS011;15376;48.540;9.268;2024-02-16T02:56:31;8.33;;;4.60;;
2320;SDS011;15376;48.540;9.268;2024-02-16T02:58:57;5.77;;;4.90;;
2320;SDS011;15376;48.540;9.268;2024-02-16T03:01:22;4.40;;;4.00;;
2320;SDS011;15376;48.540;9.268;2024-02-16T03:03:47;4.27;;;3.90;;
2320;SDS011;15376;48.540;9.268;2024-02-16T03:06:17;6.80;;;4.87;;
2320;SDS011;15376;48.540;9.268;2024-02-16T03:08:46;5.90;;;5.13;;
2320;SDS011;15376;48.540;9.268;2024-02-16T03:11:11;4.90;;;4.50;;
2320;SDS011;15376;48.540;9.268;2024-02-16T03:13:39;4.20;;;3.80;;
2320;SDS011;15376;48.540;9.268;2024-02-16T03:16:05;4.63;;;4.20;;
2320;SDS011;15376;48.540;9.268;2024-02-16T03:18:31;4.73;;;4.07;;
2320;SDS011;15376;48.540;9.268;2024-02-16T03:20:57;5.23;;;3.90;;
2320;SDS011;15376;48.540;9.268;2024-02-16T03:23:23;4.93;;;4.43;;
2320;SDS011;15376;48.540;9.268;2024-02-16T03:25:48;3.70;;;3.40;;
2320;SDS011;15376;48.540;9.268;2024-02-16T03:28:14;4.90;;;4.17;;
2320;SDS011;15376;48.540;9.268;2024-02-16T03:30:40;4.60;;;4.10;;
2320;SDS011;15376;48.540;9.268;2024-02-16T03:33:06;4.63;;;4.00;;
2320;SDS011;15376;48.540;9.268;2024-02-16T03:35:32;3.90;;;3.53;;
2320;SDS011;15376;48.540;9.268;2024-02-16T03:37:58;4.03;;;3.70;;
2320;SDS011;15376;48.540;9.268;2024-02-16T03:40:24;3.80;;;3.50;;
2320;SDS011;15376;48.540;9.268;2024-02-16T03:42:52;4.67;;;4.27;;
2320;SDS011;15376;48.540;9.268;2024-02-16T03:45:18;3.90;;;3.50;;
2320;SDS011;15376;48.540;9.268;2024-02-16T03:47:44;4.07;;;3.77;;
2320;SDS011;15376;48.540;9.268;2024-02-16T03:50:10;4.60;;;3.87;;
2320;SDS011;15376;48.540;9.268;2024-02-16T03:52:36;6.27;;;4.27;;
2320;SDS011;15376;48.540;9.268;2024-02-16T03:55:01;3.90;;;3.50;;
2320;SDS011;15376;48.540;9.268;2024-02-16T03:57:27;4.40;;;3.00;;
2320;SDS011;15376;48.540;9.268;2024-02-16T03:59:52;4.40;;;3.90;;
2320;SDS011;15376;48.540;9.268;2024-02-16T04:02:17;4.37;;;3.80;;
2320;SDS011;15376;48.540;9.268;2024-02-16T04:04:43;8.07;;;3.80;;
2320;SDS011;15376;48.540;9.268;2024-02-16T04:07:09;4.50;;;4.10;;
2320;SDS011;15376;48.540;9.268;2024-02-16T04:09:34;7.47;;;4.40;;
2320;SDS011;15376;48.540;9.268;2024-02-16T04:12:03;4.10;;;3.70;;
2320;SDS011;15376;48.540;9.268;2024-02-16T04:14:29;4.10;;;3.67;;
2320;SDS011;15376;48.540;9.268;2024-02-16T04:16:58;4.03;;;3.63;;
2320;SDS011;15376;48.540;9.268;2024-02-16T04:19:25;4.27;;;3.57;;
2320;SDS011;15376;48.540;9.268;2024-02-16T04:21:50;3.57;;;3.27;;
2320;SDS011;15376;48.540;9.268;2024-02-16T04:24:16;3.60;;;3.30;;
2320;SDS011;15376;48.540;9.268;2024-02-16T04:26:42;3.47;;;3.27;;
2320;SDS011;15376;48.540;9.268;2024-02-16T04:29:07;3.83;;;3.53;;
2320;SDS011;15376;48.540;9.268;2024-02-16T04:31:32;7.00;;;3.37;;
2320;SDS011;15376;48.540;9.268;2024-02-16T04:33:58;4.67;;;4.20;;
2320;SDS011;15376;48.540;9.268;2024-02-16T04:36:24;3.80;;;3.50;;
2320;SDS011;15376;48.540;9.268;2024-02-16T04:38:49;5.57;;;3.93;;
2320;SDS011;15376;48.540;9.268;2024-02-16T04:41:15;3.90;;;3.60;;
2320;SDS011;15376;48.540;9.268;2024-02-16T04:43:40;6.70;;;4.43;;
2320;SDS011;15376;48.540;9.268;2024-02-16T04:46:06;5.40;;;4.90;;
2320;SDS011;15376;48.540;9.268;2024-02-16T04:48:31;4.03;;;3.70;;
2320;SDS011;15376;48.540;9.268;2024-02-16T04:50:57;8.97;;;4.80;;
2320;SDS011;15376;48.540;9.268;2024-02-16T04:53:23;7.00;;;3.73;;
2320;SDS011;15376;48.540;9.268;2024-02-16T04:55:48;4.90;;;4.50;;
2320;SDS011;15376;48.540;9.268;2024-02-16T04:58:13;6.30;;;4.47;;
2320;SDS011;15376;48.540;9.268;2024-02-16T05:00:39;5.13;;;4.33;;
2320;SDS011;15376;48.540;9.268;2024-02-16T05:03:04;4.37;;;3.97;;
2320;SDS011;15376;48.540;9.268;2024-02-16T05:05:30;4.00;;;3.60;;
2320;SDS011;15376;48.540;9.268;2024-02-16T05:07:58;4.07;;;3.67;;
2320;SDS011;15376;48.540;9.268;2024-02-16T05:10:24;4.83;;;4.40;;
2320;SDS011;15376;48.540;9.268;2024-02-16T05:12:49;5.13;;;4.13;;
2320;SDS011;15376;48.540;9.268;2024-02-16T05:15:14;4.73;;;4.23;;
2320;SDS011;15376;48.540;9.268;2024-02-16T05:17:40;5.63;;;4.53;;
2320;SDS011;15376;48.540;9.268;2024-02-16T05:20:12;4.40;;;4.00;;
2320;SDS011;15376;48.540;9.268;2024-02-16T05:22:46;4.33;;;3.93;;
2320;SDS011;15376;48.540;9.268;2024-02-16T05:25:12;4.80;;;3.10;;
2320;SDS011;15376;48.540;9.268;2024-02-16T05:27:38;7.30;;;3.60;;
2320;SDS011;15376;48.540;9.268;2024-02-16T05:30:04;6.93;;;3.47;;
2320;SDS011;15376;48.540;9.268;2024-02-16T05:32:34;6.20;;;4.57;;
2320;SDS011;15376;48.540;9.268;2024-02-16T05:35:01;4.27;;;3.97;;
2320;SDS011;15376;48.540;9.268;2024-02-16T05:37:30;4.57;;;4.17;;
2320;SDS011;15376;48.540;9.268;2024-02-16T05:39:57;5.20;;;4.30;;
2320;SDS011;15376;48.540;9.268;2024-02-16T05:42:33;6.77;;;4.50;;
2320;SDS011;15376;48.540;9.268;2024-02-16T05:44:58;6.90;;;4.80;;
2320;SDS011;15376;48.540;9.268;2024-02-16T05:47:24;5.03;;;4.63;;
2320;SDS011;15376;48.540;9.268;2024-02-16T05:49:49;4.40;;;3.90;;
2320;SDS011;15376;48.540;9.268;2024-02-16T05:52:15;5.60;;;4.70;;
2320;SDS011;15376;48.540;9.268;2024-02-16T05:54:46;5.47;;;4.97;;
2320;SDS011;15376;48.540;9.268;2024-02-16T05:57:15;6.60;;;4.67;;
2320;SDS011;15376;48.540;9.268;2024-02-16T05:59:41;4.67;;;4.10;;
2320;SDS011;15376;48.540;9.268;2024-02-16T06:02:08;6.03;;;5.53;;
2320;SDS011;15376;48.540;9.268;2024-02-16T06:04:33;4.90;;;4.50;;
2320;SDS011;15376;48.540;9.268;2024-02-16T06:06:59;5.40;;;4.90;;
2320;SDS011;15376;48.540;9.268;2024-02-16T06:09:25;5.33;;;4.80;;
2320;SDS011;15376;48.540;9.268;2024-02-16T06:11:51;5.80;;;4.47;;
2320;SDS011;15376;48.540;9.268;2024-02-16T06:14:16;8.40;;;4.83;;
2320;SDS011;15376;48.540;9.268;2024-02-16T06:16:41;5.03;;;4.53;;
2320;SDS011;15376;48.540;9.268;2024-02-16T06:19:07;5.10;;;4.53;;
2320;SDS011;15376;48.540;9.268;2024-02-16T06:21:33;7.27;;;5.33;;
2320;SDS011;15376;48.540;9.268;2024-02-16T06:23:59;5.63;;;5.13;;
2320;SDS011;15376;48.540;9.268;2024-02-16T06:26:24;5.43;;;4.80;;
2320;SDS011;15376;48.540;9.268;2024-02-16T06:28:49;4.90;;;4.40;;
2320;SDS011;15376;48.540;9.268;2024-02-16T06:31:15;7.00;;;4.53;;
2320;SDS011;15376;48.540;9.268;2024-02-16T06:33:40;6.27;;;5.13;;
2320;SDS011;15376;48.540;9.268;2024-02-16T06:36:06;7.53;;;5.20;;
2320;SDS011;15376;48.540;9.268;2024-02-16T06:38:32;8.13;;;5.33;;
2320;SDS011;15376;48.540;9.268;2024-02-16T06:41:01;4.87;;;4.33;;
2320;SDS011;15376;48.540;9.268;2024-02-16T06:43:28;8.23;;;5.47;;
2320;SDS011;15376;48.540;9.268;2024-02-16T06:45:54;5.70;;;4.60;;
2320;SDS011;15376;48.540;9.268;2024-02-16T06:48:21;9.03;;;4.40;;
2320;SDS011;15376;48.540;9.268;2024-02-16T06:50:47;6.40;;;4.33;;
2320;SDS011;15376;48.540;9.268;2024-02-16T06:53:12;7.10;;;4.47;;
2320;SDS011;15376;48.540;9.268;2024-02-16T06:55:37;6.47;;;4.27;;
2320;SDS011;15376;48.540;9.268;2024-02-16T06:58:03;4.47;;;4.07;;
2320;SDS011;15376;48.540;9.268;2024-02-16T07:00:28;6.87;;;5.77;;
2320;SDS011;15376;48.540;9.268;2024-02-16T07:02:54;6.10;;;5.00;;
2320;SDS011;15376;48.540;9.268;2024-02-16T07:05:19;6.20;;;5.60;;
2320;SDS011;15376;48.540;9.268;2024-02-16T07:07:44;7.83;;;4.50;;
2320;SDS011;15376;48.540;9.268;2024-02-16T07:10:10;5.97;;;4.90;;
2320;SDS011;15376;48.540;9.268;2024-02-16T07:12:38;6.10;;;4.37;;
2320;SDS011;15376;48.540;9.268;2024-02-16T07:15:05;5.37;;;4.87;;
2320;SDS011;15376;48.540;9.268;2024-02-16T07:17:31;5.80;;;4.40;;
2320;SDS011;15376;48.540;9.268;2024-02-16T07:19:56;8.77;;;4.50;;
2320;SDS011;15376;48.540;9.268;2024-02-16T07:22:21;7.27;;;4.60;;
2320;SDS011;15376;48.540;9.268;2024-02-16T07:24:47;5.47;;;4.20;;
2320;SDS011;15376;48.540;9.268;2024-02-16T07:27:12;7.97;;;4.23;;
2320;SDS011;15376;48.540;9.268;2024-02-16T07:29:37;5.17;;;3.83;;
2320;SDS011;15376;48.540;9.268;2024-02-16T07:32:06;3.87;;;3.47;;
2320;SDS011;15376;48.540;9.268;2024-02-16T07:34:32;5.17;;;4.20;;
2320;SDS011;15376;48.540;9.268;2024-02-16T07:36:57;6.53;;;4.03;;
2320;SDS011;15376;48.540;9.268;2024-02-16T07:39:22;5.60;;;3.80;;
2320;SDS011;15376;48.540;9.268;2024-02-16T07:41:49;3.87;;;3.53;;
2320;SDS011;15376;48.540;9.268;2024-02-16T07:44:14;5.90;;;3.37;;
2320;SDS011;15376;48.540;9.268;2024-02-16T07:46:40;6.60;;;4.23;;
2320;SDS011;15376;48.540;9.268;2024-02-16T07:49:06;6.10;;;4.33;;
2320;SDS011;15376;48.540;9.268;2024-02-16T07:51:32;3.80;;;3.50;;
2320;SDS011;15376;48.540;9.268;2024-02-16T07:53:57;3.40;;;3.10;;
2320;SDS011;15376;48.540;9.268;2024-02-16T07:56:22;4.03;;;3.73;;
2320;SDS011;15376;48.540;9.268;2024-02-16T07:58:48;4.17;;;3.50;;
2320;SDS011;15376;48.540;9.268;2024-02-16T08:01:13;4.23;;;3.73;;
2320;SDS011;15376;48.540;9.268;2024-02-16T08:03:41;4.50;;;4.10;;
2320;SDS011;15376;48.540;9.268;2024-02-16T08:06:07;8.77;;;4.50;;
2320;SDS011;15376;48.540;9.268;2024-02-16T08:08:34;4.53;;;4.23;;
2320;SDS011;15376;48.540;9.268;2024-02-16T08:10:59;6.73;;;4.83;;
2320;SDS011;15376;48.540;9.268;2024-02-16T08:13:24;5.50;;;4.63;;
2320;SDS011;15376;48.540;9.268;2024-02-16T08:15:50;9.63;;;5.13;;
2320;SDS011;15376;48.540;9.268;2024-02-16T08:18:16;7.80;;;4.60;;
2320;SDS011;15376;48.540;9.268;2024-02-16T08:20:42;5.30;;;4.80;;
2320;SDS011;15376;48.540;9.268;2024-02-16T08:23:08;8.70;;;6.30;;
2320;SDS011;15376;48.540;9.268;2024-02-16T08:25:33;5.20;;;4.73;;
2320;SDS011;15376;48.540;9.268;2024-02-16T08:27:58;8.13;;;5.23;;
2320;SDS011;15376;48.540;9.268;2024-02-16T08:30:24;5.60;;;5.00;;
2320;SDS011;15376;48.540;9.268;2024-02-16T08:32:50;6.60;;;5.30;;
2320;SDS011;15376;48.540;9.268;2024-02-16T08:35:16;7.23;;;5.10;;
2320;SDS011;15376;48.540;9.268;2024-02-16T08:37:42;6.50;;;5.00;;
2320;SDS011;15376;48.540;9.268;2024-02-16T08:40:07;9.00;;;5.10;;
2320;SDS011;15376;48.540;9.268;2024-02-16T08:42:36;7.10;;;5.87;;
2320;SDS011;15376;48.540;9.268;2024-02-16T08:45:02;6.50;;;4.80;;
2320;SDS011;15376;48.540;9.268;2024-02-16T08:47:27;4.93;;;4.00;;
2320;SDS011;15376;48.540;9.268;2024-02-16T08:49:52;6.30;;;5.10;;
2320;SDS011;15376;48.540;9.268;2024-02-16T08:52:18;5.67;;;4.57;;
2320;SDS011;15376;48.540;9.268;2024-02-16T08:54:43;6.30;;;4.50;;
2320;SDS011;15376;48.540;9.268;2024-02-16T08:57:09;5.17;;;4.50;;
2320;SDS011;15376;48.540;9.268;2024-02-16T08:59:35;4.93;;;4.23;;
2320;SDS011;15376;48.540;9.268;2024-02-16T09:02:00;6.73;;;4.50;;
2320;SDS011;15376;48.540;9.268;2024-02-16T09:04:25;6.10;;;4.13;;
2320;SDS011;15376;48.540;9.268;2024-02-16T09:06:51;5.27;;;4.43;;
2320;SDS011;15376;48.540;9.268;2024-02-16T09:09:16;4.83;;;4.10;;
2320;SDS011;15376;48.540;9.268;2024-02-16T09:11:42;7.13;;;4.40;;
2320;SDS011;15376;48.540;9.268;2024-02-16T09:14:07;5.23;;;4.73;;
2320;SDS011;15376;48.540;9.268;2024-02-16T09:16:32;4.83;;;3.70;;
2320;SDS011;15376;48.540;9.268;2024-02-16T09:18:58;4.60;;;3.80;;
2320;SDS011;15376;48.540;9.268;2024-02-16T09:21:24;5.23;;;4.00;;
2320;SDS011;15376;48.540;9.268;2024-02-16T09:23:52;9.43;;;4.07;;
2320;SDS011;15376;48.540;9.268;2024-02-16T09:26:17;8.63;;;4.40;;
2320;SDS011;15376;48.540;9.268;2024-02-16T09:28:43;5.70;;;3.63;;
2320;SDS011;15376;48.540;9.268;2024-02-16T09:31:09;9.73;;;3.67;;
2320;SDS011;15376;48.540;9.268;2024-02-16T09:33:38;6.10;;;3.87;;
2320;SDS011;15376;48.540;9.268;2024-02-16T09:36:04;7.00;;;3.40;;
2320;SDS011;15376;48.540;9.268;2024-02-16T09:38:30;4.43;;;4.03;;
2320;SDS011;15376;48.540;9.268;2024-02-16T09:40:55;3.67;;;3.30;;
2320;SDS011;15376;48.540;9.268;2024-02-16T09:43:24;4.70;;;3.53;;
2320;SDS011;15376;48.540;9.268;2024-02-16T09:45:55;4.10;;;3.80;;
2320;SDS011;15376;48.540;9.268;2024-02-16T09:48:25;4.97;;;3.83;;
2320;SDS011;15376;48.540;9.268;2024-02-16T09:50:56;5.47;;;4.10;;
2320;SDS011;15376;48.540;9.268;2024-02-16T09:53:24;3.07;;;2.60;;
2320;SDS011;15376;48.540;9.268;2024-02-16T09:55:51;7.67;;;3.60;;
2320;SDS011;15376;48.540;9.268;2024-02-16T09:58:17;5.40;;;3.37;;
2320;SDS011;15376;48.540;9.268;2024-02-16T10:00:53;4.03;;;3.07;;
2320;SDS011;15376;48.540;9.268;2024-02-16T10:03:23;3.00;;;2.43;;
2320;SDS011;15376;48.540;9.268;2024-02-16T10:05:50;5.20;;;3.70;;
2320;SDS011;15376;48.540;9.268;2024-02-16T10:08:17;6.53;;;3.70;;
2320;SDS011;15376;48.540;9.268;2024-02-16T10:10:42;4.93;;;3.60;;
2320;SDS011;15376;48.540;9.268;2024-02-16T10:13:08;4.93;;;3.23;;
2320;SDS011;15376;48.540;9.268;2024-02-16T10:15:36;5.67;;;2.80;;
2320;SDS011;15376;48.540;9.268;2024-02-16T10:18:01;6.30;;;2.87;;
2320;SDS011;15376;48.540;9.268;2024-02-16T10:20:29;4.83;;;3.20;;
2320;SDS011;15376;48.540;9.268;2024-02-16T10:25:34;3.20;;;2.27;;
2320;SDS011;15376;48.540;9.268;2024-02-16T10:28:02;3.93;;;2.70;;
2320;SDS011;15376;48.540;9.268;2024-02-16T10:30:30;2.83;;;2.20;;
2320;SDS011;15376;48.540;9.268;2024-02-16T10:33:00;5.53;;;3.10;;
2320;SDS011;15376;48.540;9.268;2024-02-16T10:35:27;2.40;;;2.20;;
2320;SDS011;15376;48.540;9.268;2024-02-16T10:37:57;2.70;;;2.40;;
2320;SDS011;15376;48.540;9.268;2024-02-16T10:40:26;3.00;;;2.27;;
2320;SDS011;15376;48.540;9.268;2024-02-16T10:42:52;2.83;;;2.27;;
2320;SDS011;15376;48.540;9.268;2024-02-16T10:45:18;5.07;;;2.43;;
2320;SDS011;15376;48.540;9.268;2024-02-16T10:47:44;3.00;;;2.57;;
2320;SDS011;15376;48.540;9.268;2024-02-16T10:50:10;2.23;;;2.03;;
2320;SDS011;15376;48.540;9.268;2024-02-16T10:52:36;2.90;;;2.27;;
2320;SDS011;15376;48.540;9.268;2024-02-16T10:55:06;4.00;;;2.37;;
2320;SDS011;15376;48.540;9.268;2024-02-16T10:57:35;3.80;;;2.23;;
2320;SDS011;15376;48.540;9.268;2024-02-16T11:00:01;4.63;;;2.27;;
2320;SDS011;15376;48.540;9.268;2024-02-16T11:02:50;2.20;;;2.00;;
2320;SDS011;15376;48.540;9.268;2024-02-16T11:05:17;2.90;;;2.20;;
2320;SDS011;15376;48.540;9.268;2024-02-16T11:07:44;4.10;;;2.00;;
2320;SDS011;15376;48.540;9.268;2024-02-16T11:10:11;2.43;;;2.10;;
2320;SDS011;15376;48.540;9.268;2024-02-16T11:12:37;4.13;;;2.00;;
2320;SDS011;15376;48.540;9.268;2024-02-16T11:15:10;2.37;;;1.80;;
2320;SDS011;15376;48.540;9.268;2024-02-16T11:17:36;2.40;;;2.00;;
2320;SDS011;15376;48.540;9.268;2024-02-16T11:20:01;3.03;;;2.50;;
2320;SDS011;15376;48.540;9.268;2024-02-16T11:22:28;3.80;;;2.20;;
2320;SDS011;15376;48.540;9.268;2024-02-16T11:24:54;3.40;;;2.80;;
2320;SDS011;15376;48.540;9.268;2024-02-16T11:27:20;4.20;;;2.73;;
2320;SDS011;15376;48.540;9.268;2024-02-16T11:29:46;2.80;;;2.37;;
2320;SDS011;15376;48.540;9.268;2024-02-16T11:32:12;2.97;;;2.30;;
2320;SDS011;15376;48.540;9.268;2024-02-16T11:34:37;5.03;;;2.60;;
2320;SDS011;15376;48.540;9.268;2024-02-16T11:37:03;4.17;;;2.73;;
2320;SDS011;15376;48.540;9.268;2024-02-16T11:39:30;6.17;;;2.23;;
2320;SDS011;15376;48.540;9.268;2024-02-16T11:42:06;2.37;;;2.17;;
2320;SDS011;15376;48.540;9.268;2024-02-16T11:44:35;3.27;;;2.73;;
2320;SDS011;15376;48.540;9.268;2024-02-16T11:47:02;6.27;;;1.93;;
2320;SDS011;15376;48.540;9.268;2024-02-16T11:49:31;2.90;;;2.20;;
2320;SDS011;15376;48.540;9.268;2024-02-16T11:51:56;2.73;;;2.27;;
2320;SDS011;15376;48.540;9.268;2024-02-16T11:54:24;2.60;;;2.13;;
2320;SDS011;15376;48.540;9.268;2024-02-16T11:56:51;3.00;;;2.20;;
2320;SDS011;15376;48.540;9.268;2024-02-16T11:59:17;4.03;;;2.40;;
2320;SDS011;15376;48.540;9.268;2024-02-16T12:01:53;2.17;;;2.00;;
2320;SDS011;15376;48.540;9.268;2024-02-16T12:04:21;3.57;;;2.40;;
2320;SDS011;15376;48.540;9.268;2024-02-16T12:06:55;3.83;;;2.03;;
2320;SDS011;15376;48.540;9.268;2024-02-16T12:09:25;3.30;;;2.33;;
2320;SDS011;15376;48.540;9.268;2024-02-16T12:11:51;3.37;;;2.60;;
2320;SDS011;15376;48.540;9.268;2024-02-16T12:14:18;3.00;;;2.17;;
2320;SDS011;15376;48.540;9.268;2024-02-16T12:16:48;2.10;;;1.87;;
2320;SDS011;15376;48.540;9.268;2024-02-16T12:19:14;3.20;;;2.13;;
2320;SDS011;15376;48.540;9.268;2024-02-16T12:21:40;4.93;;;3.13;;
2320;SDS011;15376;48.540;9.268;2024-02-16T12:24:06;3.63;;;2.50;;
2320;SDS011;15376;48.540;9.268;2024-02-16T12:26:31;3.10;;;2.50;;
2320;SDS011;15376;48.540;9.268;2024-02-16T12:28:56;2.63;;;2.43;;
2320;SDS011;15376;48.540;9.268;2024-02-16T12:31:22;6.37;;;2.67;;
2320;SDS011;15376;48.540;9.268;2024-02-16T12:33:48;3.90;;;3.00;;
2320;SDS011;15376;48.540;9.268;2024-02-16T12:36:14;2.70;;;2.50;;
2320;SDS011;15376;48.540;9.268;2024-02-16T12:38:40;2.87;;;2.53;;
2320;SDS011;15376;48.540;9.268;2024-02-16T12:41:05;5.10;;;2.60;;
2320;SDS011;15376;48.540;9.268;2024-02-16T12:43:31;2.50;;;2.30;;
2320;SDS011;15376;48.540;9.268;2024-02-16T12:45:57;3.13;;;2.50;;
2320;SDS011;15376;48.540;9.268;2024-02-16T12:48:24;4.90;;;2.47;;
2320;SDS011;15376;48.540;9.268;2024-02-16T12:50:50;2.97;;;2.37;;
2320;SDS011;15376;48.540;9.268;2024-02-16T12:53:17;4.03;;;2.30;;
2320;SDS011;15376;48.540;9.268;2024-02-16T12:55:42;3.90;;;3.23;;
2320;SDS011;15376;48.540;9.268;2024-02-16T12:58:08;4.13;;;2.60;;
2320;SDS011;15376;48.540;9.268;2024-02-16T13:00:33;3.90;;;3.03;;
2320;SDS011;15376;48.540;9.268;2024-02-16T13:02:59;2.30;;;2.10;;
2320;SDS011;15376;48.540;9.268;2024-02-16T13:05:25;7.37;;;3.40;;
2320;SDS011;15376;48.540;9.268;2024-02-16T13:07:50;4.80;;;2.63;;
2320;SDS011;15376;48.540;9.268;2024-02-16T13:10:15;3.10;;;2.40;;
2320;SDS011;15376;48.540;9.268;2024-02-16T13:12:41;6.03;;;2.60;;
2320;SDS011;15376;48.540;9.268;2024-02-16T13:15:08;4.40;;;2.83;;
2320;SDS011;15376;48.540;9.268;2024-02-16T13:17:33;6.27;;;2.60;;
2320;SDS011;15376;48.540;9.268;2024-02-16T13:19:59;4.07;;;2.30;;
2320;SDS011;15376;48.540;9.268;2024-02-16T13:22:32;4.77;;;2.70;;
2320;SDS011;15376;48.540;9.268;2024-02-16T13:24:58;5.40;;;2.80;;
2320;SDS011;15376;48.540;9.268;2024-02-16T13:27:24;4.50;;;2.90;;
2320;SDS011;15376;48.540;9.268;2024-02-16T13:29:49;5.40;;;3.27;;
2320;SDS011;15376;48.540;9.268;2024-02-16T13:32:15;8.20;;;3.53;;
2320;SDS011;15376;48.540;9.268;2024-02-16T13:34:40;2.90;;;2.70;;
2320;SDS011;15376;48.540;9.268;2024-02-16T13:37:05;2.90;;;2.70;;
2320;SDS011;15376;48.540;9.268;2024-02-16T13:39:31;6.00;;;2.47;;
2320;SDS011;15376;48.540;9.268;2024-02-16T13:41:56;3.80;;;2.77;;
2320;SDS011;15376;48.540;9.268;2024-02-16T13:44:22;7.40;;;2.90;;
2320;SDS011;15376;48.540;9.268;2024-02-16T13:46:49;4.03;;;2.53;;
2320;SDS011;15376;48.540;9.268;2024-02-16T13:49:14;3.93;;;2.33;;
2320;SDS011;15376;48.540;9.268;2024-02-16T13:51:40;6.83;;;3.13;;
2320;SDS011;15376;48.540;9.268;2024-02-16T13:54:06;3.63;;;2.57;;
2320;SDS011;15376;48.540;9.268;2024-02-16T13:56:32;5.83;;;2.60;;
2320;SDS011;15376;48.540;9.268;2024-02-16T13:58:57;3.63;;;2.73;;
2320;SDS011;15376;48.540;9.268;2024-02-16T14:01:22;6.53;;;3.10;;
2320;SDS011;15376;48.540;9.268;2024-02-16T14:03:49;5.03;;;3.30;;
2320;SDS011;15376;48.540;9.268;2024-02-16T14:06:16;6.87;;;2.70;;
2320;SDS011;15376;48.540;9.268;2024-02-16T14:08:41;3.73;;;2.87;;
2320;SDS011;15376;48.540;9.268;2024-02-16T14:11:07;6.67;;;2.63;;
2320;SDS011;15376;48.540;9.268;2024-02-16T14:13:33;3.33;;;2.80;;
2320;SDS011;15376;48.540;9.268;2024-02-16T14:15:59;4.27;;;3.03;;
2320;SDS011;15376;48.540;9.268;2024-02-16T14:18:25;4.40;;;2.80;;
2320;SDS011;15376;48.540;9.268;2024-02-16T14:20:50;10.13;;;3.30;;
2320;SDS011;15376;48.540;9.268;2024-02-16T14:23:15;5.40;;;3.23;;
2320;SDS011;15376;48.540;9.268;2024-02-16T14:25:41;4.37;;;2.43;;
2320;SDS011;15376;48.540;9.268;2024-02-16T14:28:06;5.60;;;2.93;;
2320;SDS011;15376;48.540;9.268;2024-02-16T14:30:32;5.40;;;2.70;;
2320;SDS011;15376;48.540;9.268;2024-02-16T14:32:58;6.27;;;2.70;;
2320;SDS011;15376;48.540;9.268;2024-02-16T14:35:24;6.03;;;2.47;;
2320;SDS011;15376;48.540;9.268;2024-02-16T14:37:49;4.80;;;2.73;;
2320;SDS011;15376;48.540;9.268;2024-02-16T14:40:14;7.17;;;3.10;;
2320;SDS011;15376;48.540;9.268;2024-02-16T14:42:40;6.43;;;2.43;;
2320;SDS011;15376;48.540;9.268;2024-02-16T14:45:07;6.07;;;3.10;;
2320;SDS011;15376;48.540;9.268;2024-02-16T14:47:35;4.43;;;2.37;;
2320;SDS011;15376;48.540;9.268;2024-02-16T14:50:01;7.53;;;2.80;;
2320;SDS011;15376;48.540;9.268;2024-02-16T14:52:28;5.90;;;2.50;;
2320;SDS011;15376;48.540;9.268;2024-02-16T14:54:54;4.10;;;2.60;;
2320;SDS011;15376;48.540;9.268;2024-02-16T14:57:20;12.03;;;3.50;;